Összefoglaló Pér: 

VentuSky:

Felhőkép magyaroszág: 

 

 

Keresés

Felhőkép 

Felhőkép

Széltérkép

Széltérkép

Győr-Pér Repülőtér

Élő webkamera kép

 Nagyobb kép

Győr-Pér Repülőtér

[Source: ADDS]
METAR
LHPR 192045Z AUTO 13006KT 9999 ////// 12/05 Q1024 =
LHPR 191715Z 1918/2003 18007KT CAVOK
TAF
LHPR 191715Z 1918/2003 18007KT CAVOK =
SR / SS: 03:06 / 18:24 UTC (Napkelte / Napnyugta 2022-05-19)

Kapcsolat

Telephely:     9099 Pér, Repülõtér

Klubhelyiség: 9021 Gyõr, Városház tér 3.

E-mail: info@aeroclub-gyor.hu

Telefon: 06-20-777-9106

Adószám: 19113832-2-08

JSN Metro template designed by JoomlaShine.com